sensor_id;sensor_type;location;lat;lon;timestamp;P1;durP1;ratioP1;P2;durP2;ratioP2
26540;SDS011;14206;50.202;10.948;2023-07-20T00:00:11;2.08;;;1.52;;
26540;SDS011;14206;50.202;10.948;2023-07-20T00:02:42;2.17;;;1.80;;
26540;SDS011;14206;50.202;10.948;2023-07-20T00:05:11;1.75;;;1.65;;
26540;SDS011;14206;50.202;10.948;2023-07-20T00:07:42;2.10;;;1.88;;
26540;SDS011;14206;50.202;10.948;2023-07-20T00:10:09;2.20;;;1.90;;
26540;SDS011;14206;50.202;10.948;2023-07-20T00:12:36;2.17;;;1.70;;
26540;SDS011;14206;50.202;10.948;2023-07-20T00:15:03;4.05;;;1.90;;
26540;SDS011;14206;50.202;10.948;2023-07-20T00:17:31;1.80;;;1.63;;
26540;SDS011;14206;50.202;10.948;2023-07-20T00:19:58;1.70;;;1.40;;
26540;SDS011;14206;50.202;10.948;2023-07-20T00:22:25;2.67;;;1.70;;
26540;SDS011;14206;50.202;10.948;2023-07-20T00:24:52;1.50;;;1.40;;
26540;SDS011;14206;50.202;10.948;2023-07-20T00:27:20;1.70;;;1.58;;
26540;SDS011;14206;50.202;10.948;2023-07-20T00:29:47;1.40;;;1.30;;
26540;SDS011;14206;50.202;10.948;2023-07-20T00:32:14;1.63;;;1.52;;
26540;SDS011;14206;50.202;10.948;2023-07-20T00:34:41;2.22;;;1.40;;
26540;SDS011;14206;50.202;10.948;2023-07-20T00:37:08;2.80;;;1.50;;
26540;SDS011;14206;50.202;10.948;2023-07-20T00:39:36;2.05;;;1.40;;
26540;SDS011;14206;50.202;10.948;2023-07-20T00:42:04;1.60;;;1.50;;
26540;SDS011;14206;50.202;10.948;2023-07-20T00:44:32;1.30;;;1.20;;
26540;SDS011;14206;50.202;10.948;2023-07-20T00:46:59;1.52;;;1.42;;
26540;SDS011;14206;50.202;10.948;2023-07-20T00:49:26;1.50;;;1.35;;
26540;SDS011;14206;50.202;10.948;2023-07-20T00:51:54;1.30;;;1.20;;
26540;SDS011;14206;50.202;10.948;2023-07-20T00:54:21;1.75;;;1.10;;
26540;SDS011;14206;50.202;10.948;2023-07-20T00:56:48;1.60;;;1.30;;
26540;SDS011;14206;50.202;10.948;2023-07-20T00:59:17;1.60;;;1.20;;
26540;SDS011;14206;50.202;10.948;2023-07-20T01:01:44;1.67;;;1.58;;
26540;SDS011;14206;50.202;10.948;2023-07-20T01:04:12;1.40;;;1.30;;
26540;SDS011;14206;50.202;10.948;2023-07-20T01:07:31;2.92;;;1.42;;
26540;SDS011;14206;50.202;10.948;2023-07-20T01:10:14;1.67;;;1.40;;
26540;SDS011;14206;50.202;10.948;2023-07-20T01:12:47;2.00;;;1.67;;
26540;SDS011;14206;50.202;10.948;2023-07-20T01:15:18;1.67;;;1.50;;
26540;SDS011;14206;50.202;10.948;2023-07-20T01:17:45;1.90;;;1.60;;
26540;SDS011;14206;50.202;10.948;2023-07-20T01:20:13;1.65;;;1.55;;
26540;SDS011;14206;50.202;10.948;2023-07-20T01:26:07;2.15;;;1.35;;
26540;SDS011;14206;50.202;10.948;2023-07-20T01:32:00;2.97;;;1.20;;
26540;SDS011;14206;50.202;10.948;2023-07-20T01:34:30;1.80;;;1.45;;
26540;SDS011;14206;50.202;10.948;2023-07-20T01:36:59;1.58;;;1.42;;
26540;SDS011;14206;50.202;10.948;2023-07-20T01:39:27;1.92;;;1.30;;
26540;SDS011;14206;50.202;10.948;2023-07-20T01:41:55;1.67;;;1.58;;
26540;SDS011;14206;50.202;10.948;2023-07-20T01:44:23;2.60;;;1.80;;
26540;SDS011;14206;50.202;10.948;2023-07-20T01:46:51;2.05;;;1.42;;
26540;SDS011;14206;50.202;10.948;2023-07-20T01:49:18;2.53;;;1.42;;
26540;SDS011;14206;50.202;10.948;2023-07-20T01:51:46;3.38;;;1.63;;
26540;SDS011;14206;50.202;10.948;2023-07-20T01:54:13;2.00;;;1.20;;
26540;SDS011;14206;50.202;10.948;2023-07-20T01:56:40;2.83;;;1.63;;
26540;SDS011;14206;50.202;10.948;2023-07-20T01:59:07;3.42;;;2.35;;
26540;SDS011;14206;50.202;10.948;2023-07-20T02:01:34;2.65;;;2.22;;
26540;SDS011;14206;50.202;10.948;2023-07-20T02:04:01;2.75;;;2.40;;
26540;SDS011;14206;50.202;10.948;2023-07-20T02:06:30;2.00;;;1.80;;
26540;SDS011;14206;50.202;10.948;2023-07-20T02:08:57;1.63;;;1.52;;
26540;SDS011;14206;50.202;10.948;2023-07-20T02:11:24;1.70;;;1.35;;
26540;SDS011;14206;50.202;10.948;2023-07-20T02:13:51;2.13;;;1.40;;
26540;SDS011;14206;50.202;10.948;2023-07-20T02:16:18;2.08;;;1.55;;
26540;SDS011;14206;50.202;10.948;2023-07-20T02:18:46;1.75;;;1.50;;
26540;SDS011;14206;50.202;10.948;2023-07-20T02:21:13;1.65;;;1.55;;
26540;SDS011;14206;50.202;10.948;2023-07-20T02:23:41;1.98;;;1.55;;
26540;SDS011;14206;50.202;10.948;2023-07-20T02:26:09;1.50;;;1.40;;
26540;SDS011;14206;50.202;10.948;2023-07-20T02:28:36;1.50;;;1.40;;
26540;SDS011;14206;50.202;10.948;2023-07-20T02:31:03;1.42;;;1.20;;
26540;SDS011;14206;50.202;10.948;2023-07-20T02:33:30;1.85;;;1.42;;
26540;SDS011;14206;50.202;10.948;2023-07-20T02:35:57;1.45;;;1.35;;
26540;SDS011;14206;50.202;10.948;2023-07-20T02:38:24;1.30;;;1.20;;
26540;SDS011;14206;50.202;10.948;2023-07-20T02:40:51;1.50;;;1.40;;
26540;SDS011;14206;50.202;10.948;2023-07-20T02:43:18;1.60;;;1.30;;
26540;SDS011;14206;50.202;10.948;2023-07-20T02:45:45;1.40;;;1.30;;
26540;SDS011;14206;50.202;10.948;2023-07-20T02:48:13;2.33;;;1.38;;
26540;SDS011;14206;50.202;10.948;2023-07-20T02:50:40;1.40;;;1.30;;
26540;SDS011;14206;50.202;10.948;2023-07-20T02:53:07;2.38;;;1.50;;
26540;SDS011;14206;50.202;10.948;2023-07-20T02:55:35;1.50;;;1.40;;
26540;SDS011;14206;50.202;10.948;2023-07-20T02:58:02;1.65;;;1.55;;
26540;SDS011;14206;50.202;10.948;2023-07-20T03:00:44;2.45;;;1.13;;
26540;SDS011;14206;50.202;10.948;2023-07-20T03:03:18;1.60;;;1.45;;
26540;SDS011;14206;50.202;10.948;2023-07-20T03:05:46;2.05;;;1.40;;
26540;SDS011;14206;50.202;10.948;2023-07-20T03:08:14;1.50;;;1.40;;
26540;SDS011;14206;50.202;10.948;2023-07-20T03:10:41;1.35;;;1.20;;
26540;SDS011;14206;50.202;10.948;2023-07-20T03:13:10;1.20;;;1.10;;
26540;SDS011;14206;50.202;10.948;2023-07-20T03:15:39;1.38;;;1.27;;
26540;SDS011;14206;50.202;10.948;2023-07-20T03:21:51;1.95;;;1.10;;
26540;SDS011;14206;50.202;10.948;2023-07-20T03:38:45;1.70;;;1.40;;
26540;SDS011;14206;50.202;10.948;2023-07-20T03:46:45;1.05;;;1.02;;
26540;SDS011;14206;50.202;10.948;2023-07-20T03:49:12;1.48;;;1.30;;
26540;SDS011;14206;50.202;10.948;2023-07-20T03:51:40;1.33;;;1.23;;
26540;SDS011;14206;50.202;10.948;2023-07-20T04:24:58;2.33;;;1.60;;
26540;SDS011;14206;50.202;10.948;2023-07-20T04:36:38;1.98;;;1.60;;
26540;SDS011;14206;50.202;10.948;2023-07-20T04:49:04;1.50;;;1.40;;
26540;SDS011;14206;50.202;10.948;2023-07-20T04:54:58;1.98;;;1.58;;
26540;SDS011;14206;50.202;10.948;2023-07-20T04:57:25;2.90;;;2.45;;
26540;SDS011;14206;50.202;10.948;2023-07-20T04:59:53;2.17;;;1.80;;
26540;SDS011;14206;50.202;10.948;2023-07-20T05:02:20;1.90;;;1.55;;
26540;SDS011;14206;50.202;10.948;2023-07-20T05:04:48;1.50;;;1.40;;
26540;SDS011;14206;50.202;10.948;2023-07-20T05:07:18;1.45;;;1.35;;
26540;SDS011;14206;50.202;10.948;2023-07-20T05:09:45;2.03;;;1.50;;
26540;SDS011;14206;50.202;10.948;2023-07-20T05:12:12;1.40;;;1.30;;
26540;SDS011;14206;50.202;10.948;2023-07-20T05:14:40;1.50;;;1.30;;
26540;SDS011;14206;50.202;10.948;2023-07-20T05:17:08;1.40;;;1.30;;
26540;SDS011;14206;50.202;10.948;2023-07-20T05:19:35;4.32;;;2.22;;
26540;SDS011;14206;50.202;10.948;2023-07-20T05:22:02;3.20;;;2.03;;
26540;SDS011;14206;50.202;10.948;2023-07-20T05:24:32;4.40;;;2.75;;
26540;SDS011;14206;50.202;10.948;2023-07-20T05:26:59;4.53;;;2.00;;
26540;SDS011;14206;50.202;10.948;2023-07-20T05:29:26;3.38;;;2.00;;
26540;SDS011;14206;50.202;10.948;2023-07-20T05:31:53;2.70;;;2.35;;
26540;SDS011;14206;50.202;10.948;2023-07-20T05:34:21;2.53;;;2.00;;
26540;SDS011;14206;50.202;10.948;2023-07-20T05:36:53;1.80;;;1.60;;
26540;SDS011;14206;50.202;10.948;2023-07-20T05:39:21;1.50;;;1.40;;
26540;SDS011;14206;50.202;10.948;2023-07-20T05:41:48;3.58;;;2.03;;
26540;SDS011;14206;50.202;10.948;2023-07-20T05:44:15;3.40;;;2.25;;
26540;SDS011;14206;50.202;10.948;2023-07-20T05:46:42;3.25;;;2.35;;
26540;SDS011;14206;50.202;10.948;2023-07-20T05:49:23;2.30;;;1.92;;
26540;SDS011;14206;50.202;10.948;2023-07-20T05:51:53;3.08;;;2.40;;
26540;SDS011;14206;50.202;10.948;2023-07-20T05:55:22;3.15;;;2.35;;
26540;SDS011;14206;50.202;10.948;2023-07-20T05:57:50;2.10;;;1.90;;
26540;SDS011;14206;50.202;10.948;2023-07-20T06:00:17;4.18;;;2.92;;
26540;SDS011;14206;50.202;10.948;2023-07-20T06:02:45;3.63;;;2.17;;
26540;SDS011;14206;50.202;10.948;2023-07-20T06:05:14;2.65;;;2.22;;
26540;SDS011;14206;50.202;10.948;2023-07-20T06:07:41;3.42;;;2.42;;
26540;SDS011;14206;50.202;10.948;2023-07-20T06:10:09;2.45;;;1.90;;
26540;SDS011;14206;50.202;10.948;2023-07-20T06:12:36;2.42;;;2.13;;
26540;SDS011;14206;50.202;10.948;2023-07-20T06:15:03;3.80;;;2.63;;
26540;SDS011;14206;50.202;10.948;2023-07-20T06:17:32;2.50;;;2.10;;
26540;SDS011;14206;50.202;10.948;2023-07-20T06:19:59;2.10;;;1.65;;
26540;SDS011;14206;50.202;10.948;2023-07-20T06:22:26;3.30;;;2.30;;
26540;SDS011;14206;50.202;10.948;2023-07-20T06:24:53;3.35;;;2.83;;
26540;SDS011;14206;50.202;10.948;2023-07-20T06:27:20;2.50;;;2.08;;
26540;SDS011;14206;50.202;10.948;2023-07-20T06:29:48;2.97;;;2.55;;
26540;SDS011;14206;50.202;10.948;2023-07-20T06:32:15;3.33;;;2.42;;
26540;SDS011;14206;50.202;10.948;2023-07-20T06:34:42;2.20;;;1.85;;
26540;SDS011;14206;50.202;10.948;2023-07-20T06:37:09;2.38;;;1.95;;
26540;SDS011;14206;50.202;10.948;2023-07-20T06:39:36;2.03;;;1.40;;
26540;SDS011;14206;50.202;10.948;2023-07-20T06:42:06;3.17;;;2.40;;
26540;SDS011;14206;50.202;10.948;2023-07-20T06:44:33;3.28;;;2.13;;
26540;SDS011;14206;50.202;10.948;2023-07-20T06:47:01;3.00;;;2.33;;
26540;SDS011;14206;50.202;10.948;2023-07-20T06:49:28;3.17;;;2.10;;
26540;SDS011;14206;50.202;10.948;2023-07-20T06:51:56;3.58;;;2.13;;
26540;SDS011;14206;50.202;10.948;2023-07-20T06:54:23;2.17;;;1.85;;
26540;SDS011;14206;50.202;10.948;2023-07-20T06:56:50;2.47;;;1.85;;
26540;SDS011;14206;50.202;10.948;2023-07-20T06:59:20;1.67;;;1.58;;
26540;SDS011;14206;50.202;10.948;2023-07-20T07:01:48;1.67;;;1.50;;
26540;SDS011;14206;50.202;10.948;2023-07-20T07:04:15;2.35;;;1.55;;
26540;SDS011;14206;50.202;10.948;2023-07-20T07:06:42;2.30;;;1.20;;
26540;SDS011;14206;50.202;10.948;2023-07-20T07:09:10;3.38;;;1.63;;
26540;SDS011;14206;50.202;10.948;2023-07-20T07:11:37;1.67;;;1.38;;
26540;SDS011;14206;50.202;10.948;2023-07-20T07:14:05;1.90;;;1.70;;
26540;SDS011;14206;50.202;10.948;2023-07-20T07:16:34;2.30;;;1.60;;
26540;SDS011;14206;50.202;10.948;2023-07-20T07:19:04;2.25;;;1.42;;
26540;SDS011;14206;50.202;10.948;2023-07-20T07:21:32;1.55;;;1.35;;
26540;SDS011;14206;50.202;10.948;2023-07-20T07:23:59;1.65;;;1.30;;
26540;SDS011;14206;50.202;10.948;2023-07-20T07:26:26;1.75;;;1.30;;
26540;SDS011;14206;50.202;10.948;2023-07-20T07:28:53;3.15;;;1.60;;
26540;SDS011;14206;50.202;10.948;2023-07-20T07:31:20;2.03;;;1.63;;
26540;SDS011;14206;50.202;10.948;2023-07-20T07:33:48;1.25;;;1.00;;
26540;SDS011;14206;50.202;10.948;2023-07-20T07:36:15;1.13;;;0.90;;
26540;SDS011;14206;50.202;10.948;2023-07-20T07:38:42;1.17;;;1.08;;
26540;SDS011;14206;50.202;10.948;2023-07-20T07:41:13;1.67;;;0.93;;
26540;SDS011;14206;50.202;10.948;2023-07-20T07:43:40;1.17;;;0.80;;
26540;SDS011;14206;50.202;10.948;2023-07-20T07:46:07;1.73;;;1.20;;
26540;SDS011;14206;50.202;10.948;2023-07-20T07:48:35;1.17;;;1.08;;
26540;SDS011;14206;50.202;10.948;2023-07-20T07:51:02;0.95;;;0.95;;
26540;SDS011;14206;50.202;10.948;2023-07-20T07:53:29;1.92;;;0.98;;
26540;SDS011;14206;50.202;10.948;2023-07-20T07:55:56;0.88;;;0.88;;
26540;SDS011;14206;50.202;10.948;2023-07-20T07:58:23;0.90;;;0.90;;
26540;SDS011;14206;50.202;10.948;2023-07-20T08:00:50;1.65;;;0.90;;
26540;SDS011;14206;50.202;10.948;2023-07-20T08:03:18;1.38;;;1.13;;
26540;SDS011;14206;50.202;10.948;2023-07-20T08:05:46;1.70;;;0.88;;
26540;SDS011;14206;50.202;10.948;2023-07-20T08:08:12;0.90;;;0.90;;
26540;SDS011;14206;50.202;10.948;2023-07-20T08:10:39;1.58;;;0.85;;
26540;SDS011;14206;50.202;10.948;2023-07-20T08:13:07;1.00;;;1.00;;
26540;SDS011;14206;50.202;10.948;2023-07-20T08:15:34;1.35;;;1.00;;
26540;SDS011;14206;50.202;10.948;2023-07-20T08:18:01;1.95;;;0.90;;
26540;SDS011;14206;50.202;10.948;2023-07-20T08:20:28;1.65;;;0.88;;
26540;SDS011;14206;50.202;10.948;2023-07-20T08:22:55;0.70;;;0.70;;
26540;SDS011;14206;50.202;10.948;2023-07-20T08:25:24;0.95;;;0.60;;
26540;SDS011;14206;50.202;10.948;2023-07-20T08:27:51;0.68;;;0.68;;
26540;SDS011;14206;50.202;10.948;2023-07-20T08:30:20;0.85;;;0.80;;
26540;SDS011;14206;50.202;10.948;2023-07-20T08:32:50;1.08;;;0.90;;
26540;SDS011;14206;50.202;10.948;2023-07-20T08:35:17;1.98;;;0.80;;
26540;SDS011;14206;50.202;10.948;2023-07-20T08:37:47;1.60;;;1.20;;
26540;SDS011;14206;50.202;10.948;2023-07-20T08:40:15;1.40;;;0.82;;
26540;SDS011;14206;50.202;10.948;2023-07-20T08:42:42;1.05;;;0.90;;
26540;SDS011;14206;50.202;10.948;2023-07-20T08:45:10;1.27;;;0.80;;
26540;SDS011;14206;50.202;10.948;2023-07-20T08:47:45;0.90;;;0.70;;
26540;SDS011;14206;50.202;10.948;2023-07-20T08:50:16;1.83;;;0.90;;
26540;SDS011;14206;50.202;10.948;2023-07-20T08:52:43;2.10;;;0.90;;
26540;SDS011;14206;50.202;10.948;2023-07-20T08:55:10;0.80;;;0.80;;
26540;SDS011;14206;50.202;10.948;2023-07-20T08:57:37;0.88;;;0.70;;
26540;SDS011;14206;50.202;10.948;2023-07-20T09:00:08;1.10;;;1.00;;
26540;SDS011;14206;50.202;10.948;2023-07-20T09:02:39;2.22;;;1.40;;
26540;SDS011;14206;50.202;10.948;2023-07-20T09:05:08;1.10;;;1.00;;
26540;SDS011;14206;50.202;10.948;2023-07-20T09:07:40;0.77;;;0.77;;
26540;SDS011;14206;50.202;10.948;2023-07-20T09:10:08;1.38;;;0.80;;
26540;SDS011;14206;50.202;10.948;2023-07-20T09:12:35;1.13;;;0.80;;
26540;SDS011;14206;50.202;10.948;2023-07-20T09:15:05;1.20;;;0.90;;
26540;SDS011;14206;50.202;10.948;2023-07-20T09:17:33;1.63;;;1.02;;
26540;SDS011;14206;50.202;10.948;2023-07-20T09:20:06;0.88;;;0.88;;
26540;SDS011;14206;50.202;10.948;2023-07-20T09:22:35;1.52;;;1.15;;
26540;SDS011;14206;50.202;10.948;2023-07-20T09:25:09;1.77;;;0.95;;
26540;SDS011;14206;50.202;10.948;2023-07-20T09:27:44;0.70;;;0.70;;
26540;SDS011;14206;50.202;10.948;2023-07-20T09:30:15;1.00;;;0.90;;
26540;SDS011;14206;50.202;10.948;2023-07-20T09:32:45;1.08;;;0.98;;
26540;SDS011;14206;50.202;10.948;2023-07-20T09:35:21;0.95;;;0.90;;
26540;SDS011;14206;50.202;10.948;2023-07-20T09:37:58;1.50;;;1.30;;
26540;SDS011;14206;50.202;10.948;2023-07-20T09:40:30;1.95;;;1.15;;
26540;SDS011;14206;50.202;10.948;2023-07-20T09:43:07;0.93;;;0.88;;
26540;SDS011;14206;50.202;10.948;2023-07-20T09:45:41;2.70;;;1.50;;
26540;SDS011;14206;50.202;10.948;2023-07-20T09:48:12;1.60;;;1.23;;
26540;SDS011;14206;50.202;10.948;2023-07-20T09:50:48;2.05;;;1.33;;
26540;SDS011;14206;50.202;10.948;2023-07-20T09:55:45;1.08;;;0.90;;
26540;SDS011;14206;50.202;10.948;2023-07-20T09:58:15;2.15;;;0.90;;
26540;SDS011;14206;50.202;10.948;2023-07-20T10:00:43;1.30;;;1.20;;
26540;SDS011;14206;50.202;10.948;2023-07-20T10:03:18;1.25;;;1.15;;
26540;SDS011;14206;50.202;10.948;2023-07-20T10:05:47;2.15;;;1.20;;
26540;SDS011;14206;50.202;10.948;2023-07-20T10:08:19;2.17;;;1.35;;
26540;SDS011;14206;50.202;10.948;2023-07-20T10:13:27;1.85;;;1.35;;
26540;SDS011;14206;50.202;10.948;2023-07-20T10:16:22;1.00;;;1.00;;
26540;SDS011;14206;50.202;10.948;2023-07-20T10:19:09;1.10;;;0.80;;
26540;SDS011;14206;50.202;10.948;2023-07-20T10:21:47;1.40;;;1.30;;
26540;SDS011;14206;50.202;10.948;2023-07-20T10:24:21;3.95;;;1.20;;
26540;SDS011;14206;50.202;10.948;2023-07-20T10:26:51;2.65;;;1.30;;
26540;SDS011;14206;50.202;10.948;2023-07-20T10:29:18;2.70;;;1.40;;
26540;SDS011;14206;50.202;10.948;2023-07-20T10:31:46;1.83;;;1.30;;
26540;SDS011;14206;50.202;10.948;2023-07-20T10:34:13;1.80;;;1.15;;
26540;SDS011;14206;50.202;10.948;2023-07-20T10:36:45;1.98;;;1.15;;
26540;SDS011;14206;50.202;10.948;2023-07-20T10:39:27;2.58;;;1.10;;
26540;SDS011;14206;50.202;10.948;2023-07-20T10:42:05;1.70;;;1.30;;
26540;SDS011;14206;50.202;10.948;2023-07-20T10:44:36;1.95;;;1.02;;
26540;SDS011;14206;50.202;10.948;2023-07-20T10:47:11;0.95;;;0.90;;
26540;SDS011;14206;50.202;10.948;2023-07-20T10:49:58;1.27;;;1.00;;
26540;SDS011;14206;50.202;10.948;2023-07-20T10:52:36;1.20;;;1.10;;
26540;SDS011;14206;50.202;10.948;2023-07-20T10:55:10;0.80;;;0.80;;
26540;SDS011;14206;50.202;10.948;2023-07-20T10:57:42;1.17;;;1.00;;
26540;SDS011;14206;50.202;10.948;2023-07-20T11:00:13;1.42;;;1.15;;
26540;SDS011;14206;50.202;10.948;2023-07-20T11:05:32;1.60;;;1.10;;
26540;SDS011;14206;50.202;10.948;2023-07-20T11:08:11;1.10;;;1.00;;
26540;SDS011;14206;50.202;10.948;2023-07-20T11:10:39;0.95;;;0.73;;
26540;SDS011;14206;50.202;10.948;2023-07-20T11:13:16;2.60;;;1.02;;
26540;SDS011;14206;50.202;10.948;2023-07-20T11:18:25;1.08;;;0.98;;
26540;SDS011;14206;50.202;10.948;2023-07-20T11:20:53;1.30;;;1.20;;
26540;SDS011;14206;50.202;10.948;2023-07-20T11:23:20;1.40;;;1.20;;
26540;SDS011;14206;50.202;10.948;2023-07-20T11:25:48;1.05;;;0.90;;
26540;SDS011;14206;50.202;10.948;2023-07-20T11:28:16;1.17;;;1.08;;
26540;SDS011;14206;50.202;10.948;2023-07-20T11:30:43;0.80;;;0.73;;
26540;SDS011;14206;50.202;10.948;2023-07-20T11:33:10;0.88;;;0.77;;
26540;SDS011;14206;50.202;10.948;2023-07-20T11:35:44;0.95;;;0.88;;
26540;SDS011;14206;50.202;10.948;2023-07-20T11:38:14;1.38;;;1.10;;
26540;SDS011;14206;50.202;10.948;2023-07-20T11:40:45;0.80;;;0.80;;
26540;SDS011;14206;50.202;10.948;2023-07-20T11:43:13;1.10;;;1.05;;
26540;SDS011;14206;50.202;10.948;2023-07-20T11:45:44;0.98;;;0.98;;
26540;SDS011;14206;50.202;10.948;2023-07-20T11:48:15;1.00;;;0.90;;
26540;SDS011;14206;50.202;10.948;2023-07-20T11:50:43;1.52;;;1.25;;
26540;SDS011;14206;50.202;10.948;2023-07-20T11:53:11;1.08;;;0.98;;
26540;SDS011;14206;50.202;10.948;2023-07-20T11:55:39;0.85;;;0.85;;
26540;SDS011;14206;50.202;10.948;2023-07-20T11:58:08;1.52;;;1.33;;
26540;SDS011;14206;50.202;10.948;2023-07-20T12:00:37;1.80;;;1.13;;
26540;SDS011;14206;50.202;10.948;2023-07-20T12:03:09;2.00;;;1.35;;
26540;SDS011;14206;50.202;10.948;2023-07-20T12:05:39;0.90;;;0.90;;
26540;SDS011;14206;50.202;10.948;2023-07-20T12:08:10;1.40;;;1.20;;
26540;SDS011;14206;50.202;10.948;2023-07-20T12:10:39;1.50;;;1.00;;
26540;SDS011;14206;50.202;10.948;2023-07-20T12:13:10;1.48;;;1.17;;
26540;SDS011;14206;50.202;10.948;2023-07-20T12:15:40;1.88;;;1.23;;
26540;SDS011;14206;50.202;10.948;2023-07-20T12:18:08;3.42;;;1.30;;
26540;SDS011;14206;50.202;10.948;2023-07-20T12:20:36;0.70;;;0.70;;
26540;SDS011;14206;50.202;10.948;2023-07-20T12:23:05;2.33;;;1.00;;
26540;SDS011;14206;50.202;10.948;2023-07-20T12:28:08;0.70;;;0.70;;
26540;SDS011;14206;50.202;10.948;2023-07-20T12:30:41;1.70;;;1.20;;
26540;SDS011;14206;50.202;10.948;2023-07-20T12:33:09;1.27;;;1.05;;
26540;SDS011;14206;50.202;10.948;2023-07-20T12:35:36;0.90;;;0.90;;
26540;SDS011;14206;50.202;10.948;2023-07-20T12:38:04;0.95;;;0.80;;
26540;SDS011;14206;50.202;10.948;2023-07-20T12:40:31;1.23;;;0.95;;
26540;SDS011;14206;50.202;10.948;2023-07-20T12:42:58;1.38;;;1.05;;
26540;SDS011;14206;50.202;10.948;2023-07-20T12:45:25;0.95;;;0.90;;
26540;SDS011;14206;50.202;10.948;2023-07-20T12:47:53;1.52;;;0.93;;
26540;SDS011;14206;50.202;10.948;2023-07-20T12:50:20;0.90;;;0.90;;
26540;SDS011;14206;50.202;10.948;2023-07-20T12:52:48;0.80;;;0.80;;
26540;SDS011;14206;50.202;10.948;2023-07-20T12:55:15;1.20;;;1.10;;
26540;SDS011;14206;50.202;10.948;2023-07-20T12:57:43;0.93;;;0.70;;
26540;SDS011;14206;50.202;10.948;2023-07-20T13:00:10;0.98;;;0.88;;
26540;SDS011;14206;50.202;10.948;2023-07-20T13:02:38;1.58;;;1.27;;
26540;SDS011;14206;50.202;10.948;2023-07-20T13:05:05;2.95;;;1.42;;
26540;SDS011;14206;50.202;10.948;2023-07-20T13:07:34;1.30;;;1.10;;
26540;SDS011;14206;50.202;10.948;2023-07-20T13:10:05;1.42;;;1.30;;
26540;SDS011;14206;50.202;10.948;2023-07-20T13:12:34;1.80;;;1.20;;
26540;SDS011;14206;50.202;10.948;2023-07-20T13:15:03;1.42;;;1.20;;
26540;SDS011;14206;50.202;10.948;2023-07-20T13:17:37;1.80;;;1.42;;
26540;SDS011;14206;50.202;10.948;2023-07-20T13:20:06;1.13;;;1.02;;
26540;SDS011;14206;50.202;10.948;2023-07-20T13:22:40;1.17;;;1.05;;
26540;SDS011;14206;50.202;10.948;2023-07-20T13:25:07;1.13;;;0.90;;
26540;SDS011;14206;50.202;10.948;2023-07-20T13:27:36;1.20;;;1.10;;
26540;SDS011;14206;50.202;10.948;2023-07-20T13:30:05;0.98;;;0.80;;
26540;SDS011;14206;50.202;10.948;2023-07-20T13:32:36;0.90;;;0.90;;
26540;SDS011;14206;50.202;10.948;2023-07-20T13:35:04;1.15;;;1.02;;
26540;SDS011;14206;50.202;10.948;2023-07-20T13:37:31;1.00;;;1.00;;
26540;SDS011;14206;50.202;10.948;2023-07-20T13:40:00;1.00;;;0.90;;
26540;SDS011;14206;50.202;10.948;2023-07-20T13:42:28;1.20;;;0.85;;
26540;SDS011;14206;50.202;10.948;2023-07-20T13:44:55;1.55;;;0.80;;
26540;SDS011;14206;50.202;10.948;2023-07-20T13:47:23;0.75;;;0.73;;
26540;SDS011;14206;50.202;10.948;2023-07-20T13:49:50;1.00;;;1.00;;
26540;SDS011;14206;50.202;10.948;2023-07-20T13:52:30;1.00;;;0.93;;
26540;SDS011;14206;50.202;10.948;2023-07-20T13:55:00;0.90;;;0.90;;
26540;SDS011;14206;50.202;10.948;2023-07-20T13:57:31;1.15;;;1.00;;
26540;SDS011;14206;50.202;10.948;2023-07-20T14:00:01;0.80;;;0.80;;
26540;SDS011;14206;50.202;10.948;2023-07-20T14:02:37;1.27;;;1.17;;
26540;SDS011;14206;50.202;10.948;2023-07-20T14:05:07;1.30;;;1.20;;
26540;SDS011;14206;50.202;10.948;2023-07-20T14:07:38;1.33;;;1.23;;
26540;SDS011;14206;50.202;10.948;2023-07-20T14:10:09;1.30;;;1.05;;
26540;SDS011;14206;50.202;10.948;2023-07-20T14:12:46;0.82;;;0.82;;
26540;SDS011;14206;50.202;10.948;2023-07-20T14:15:13;1.65;;;0.70;;
26540;SDS011;14206;50.202;10.948;2023-07-20T14:17:40;0.93;;;0.90;;
26540;SDS011;14206;50.202;10.948;2023-07-20T14:20:08;1.13;;;1.02;;
26540;SDS011;14206;50.202;10.948;2023-07-20T14:22:38;1.13;;;1.02;;
26540;SDS011;14206;50.202;10.948;2023-07-20T14:25:06;0.85;;;0.85;;
26540;SDS011;14206;50.202;10.948;2023-07-20T14:27:35;0.70;;;0.70;;
26540;SDS011;14206;50.202;10.948;2023-07-20T14:30:03;1.00;;;0.90;;
26540;SDS011;14206;50.202;10.948;2023-07-20T14:32:31;1.27;;;1.15;;
26540;SDS011;14206;50.202;10.948;2023-07-20T14:35:00;1.27;;;1.05;;
26540;SDS011;14206;50.202;10.948;2023-07-20T14:37:27;1.17;;;1.00;;
26540;SDS011;14206;50.202;10.948;2023-07-20T14:39:55;0.82;;;0.82;;
26540;SDS011;14206;50.202;10.948;2023-07-20T14:42:22;1.60;;;1.50;;
26540;SDS011;14206;50.202;10.948;2023-07-20T14:44:49;1.23;;;1.10;;
26540;SDS011;14206;50.202;10.948;2023-07-20T14:47:18;1.20;;;1.10;;
26540;SDS011;14206;50.202;10.948;2023-07-20T14:49:45;0.93;;;0.90;;
26540;SDS011;14206;50.202;10.948;2023-07-20T14:52:12;0.75;;;0.75;;
26540;SDS011;14206;50.202;10.948;2023-07-20T14:54:42;0.82;;;0.82;;
26540;SDS011;14206;50.202;10.948;2023-07-20T14:57:09;0.70;;;0.70;;
26540;SDS011;14206;50.202;10.948;2023-07-20T14:59:41;1.00;;;1.00;;
26540;SDS011;14206;50.202;10.948;2023-07-20T15:02:09;1.05;;;0.95;;
26540;SDS011;14206;50.202;10.948;2023-07-20T15:04:37;0.80;;;0.80;;
26540;SDS011;14206;50.202;10.948;2023-07-20T15:07:11;1.00;;;1.00;;
26540;SDS011;14206;50.202;10.948;2023-07-20T15:09:41;1.73;;;1.30;;
26540;SDS011;14206;50.202;10.948;2023-07-20T15:12:11;1.40;;;1.20;;
26540;SDS011;14206;50.202;10.948;2023-07-20T15:14:39;0.98;;;0.93;;
26540;SDS011;14206;50.202;10.948;2023-07-20T15:17:08;0.90;;;0.90;;
26540;SDS011;14206;50.202;10.948;2023-07-20T15:19:36;2.13;;;1.00;;
26540;SDS011;14206;50.202;10.948;2023-07-20T15:22:03;0.80;;;0.80;;
26540;SDS011;14206;50.202;10.948;2023-07-20T15:24:34;1.13;;;0.90;;
26540;SDS011;14206;50.202;10.948;2023-07-20T15:27:07;2.60;;;1.40;;
26540;SDS011;14206;50.202;10.948;2023-07-20T15:29:36;1.55;;;1.45;;
26540;SDS011;14206;50.202;10.948;2023-07-20T15:32:03;1.20;;;1.10;;
26540;SDS011;14206;50.202;10.948;2023-07-20T15:34:31;1.08;;;0.82;;
26540;SDS011;14206;50.202;10.948;2023-07-20T15:37:06;1.30;;;1.17;;
26540;SDS011;14206;50.202;10.948;2023-07-20T15:39:33;1.25;;;1.00;;
26540;SDS011;14206;50.202;10.948;2023-07-20T15:42:08;1.10;;;1.00;;
26540;SDS011;14206;50.202;10.948;2023-07-20T15:44:38;1.20;;;1.10;;
26540;SDS011;14206;50.202;10.948;2023-07-20T15:47:05;0.95;;;0.95;;
26540;SDS011;14206;50.202;10.948;2023-07-20T15:49:40;1.27;;;1.05;;
26540;SDS011;14206;50.202;10.948;2023-07-20T15:54:59;0.88;;;0.88;;
26540;SDS011;14206;50.202;10.948;2023-07-20T15:57:26;1.17;;;1.00;;
26540;SDS011;14206;50.202;10.948;2023-07-20T15:59:53;0.80;;;0.80;;
26540;SDS011;14206;50.202;10.948;2023-07-20T16:02:40;1.17;;;1.10;;
26540;SDS011;14206;50.202;10.948;2023-07-20T16:05:10;0.95;;;0.90;;
26540;SDS011;14206;50.202;10.948;2023-07-20T16:07:41;1.67;;;0.90;;
26540;SDS011;14206;50.202;10.948;2023-07-20T16:10:11;1.17;;;0.90;;
26540;SDS011;14206;50.202;10.948;2023-07-20T16:12:39;1.08;;;1.00;;
26540;SDS011;14206;50.202;10.948;2023-07-20T16:15:08;1.17;;;1.00;;
26540;SDS011;14206;50.202;10.948;2023-07-20T16:17:36;1.10;;;1.00;;
26540;SDS011;14206;50.202;10.948;2023-07-20T16:20:03;1.20;;;1.10;;
26540;SDS011;14206;50.202;10.948;2023-07-20T16:22:31;0.85;;;0.85;;
26540;SDS011;14206;50.202;10.948;2023-07-20T16:24:58;0.80;;;0.80;;